LIRQLXGB

Guest
Details From LIRQ - Firenze
To LXGB - Gibraltar
Flight Number -
Tags Generated
Created
Modified
Stats Distance 899 nm / 1,665 km
Max Altitude 0 ft / 0 m
Waypoints 5
Social Downloads 2
Likes 0
Share VATSIM

Download

Looking for another format? Having issues loading an existing format? Contact us
Advertisement - Login to hide

Notes

Generated

Route

LIRQ LARAP LORES BRIKE LXGB

ID Type Via Altitude Latitude Longitude Leg Dist Tot Dist Heading (true) Name
O LIRQ APT - 0 ft / 0 m 43.80507˚ 11.19741˚ - 0 nm - -
LARAP FIX - 0 ft / 0 m 42.00139˚ 6.33389˚ 239 nm 239 nm 245° / 242° -
LORES FIX - 0 ft / 0 m 40.50000˚ 2.70260˚ 187 nm 426 nm 242° / 240° -
BRIKE FIX - 0 ft / 0 m 36.50478˚ -5.41645˚ 450 nm 877 nm 240° / 235° -
O LXGB APT - 0 ft / 0 m 36.15080˚ -5.35977˚ 21 nm 898 nm 173° / 173° -

Altitude Profile

Advertisement - Login to hide

Weather


0- 5 10 15 20 25 30 35+ Temperature / ° C

Clouds and Precipitation
Forecast for 2018-05-21 06:00 UTC. Updated 32 minutes ago

Ground ~20,000 ft ~40,000 ft Winds

LIRQ

Details ICAO LIRQ (FLR)
Name Firenze
Region Italy
Timezone Europe/Rome (UTC+2.0)
Stats Elevation 142 ft / 43 m (AMSL)
Location 43.809984° 11.205118°
Runways 1
Magnetic Variation 2.922° E

METAR

LIRQ 210520Z 21004KT 130V250 CAVOK 17/13 Q1013

Decode

TAF

TAF LIRQ 202300Z 2100/2124 04006KT 9999 SCT030 TEMPO 2110/2118 4000 TSRA TEMPO 2120/2124 4000 TSRA

Decode

Departure Runways

ID Width Length Bearing (true) Bearing (mag) Surface Threshold Offset Overrun Length
05 98 ft / 30 m 5,420 ft / 1,652 m 48.52° 45.60° Asphalt 492 ft / 150 m 0 ft / 0 m
23 98 ft / 30 m 5,420 ft / 1,652 m 228.53° 225.61° Asphalt 2,287 ft / 697 m 0 ft / 0 m

LXGB

Details ICAO LXGB (GIB)
Name Gibraltar
Region Gibralter
Timezone Europe/Gibraltar (UTC+2.0)
Stats Elevation 15 ft / 5 m (AMSL)
Location 36.151209° -5.349664°
Runways 1
Magnetic Variation 1.074° W

METAR

LXGB 210450Z 22002KT CAVOK 16/13 Q1012

Decode

TAF

Not found

Destination Runways

ID Width Length Bearing (true) Bearing (mag) Surface Threshold Offset Overrun Length
27 151 ft / 46 m 5,992 ft / 1,826 m 267.56° 268.63° Asphalt 367 ft / 112 m 89 ft / 27 m
9 151 ft / 46 m 5,992 ft / 1,826 m 87.54° 88.61° Asphalt 299 ft / 91 m 52 ft / 16 m

Popular Alternatives